FFT1469 KLAS-KSAN
Flight info
| Callsign | FFT1469 |
|---|---|
| Flight time | 0h 46m |
| Altitude | 25000 |
| Route | RADYR2 LVELL LUCKI1 |
| Aircraft | A320/M-SDE3FGHIRWY/LB1 |
Departure
| Time | 2026-05-04 01:43 |
|---|---|
| Airport | Harry Reid International Airport (KLAS) |
Arrival
| Time | 2026-05-04 02:29 |
|---|---|
| Airport | San Diego International Airport (KSAN) |
| Time | Latitude | Longitude | Altitude | Speed | Heading |
|---|---|---|---|---|---|
| 2026-05-04 01:18 | 36.08256 | -115.13718 | 2192 ft | 0 kts | 143° |
| 2026-05-04 01:29 | 36.08256 | -115.13719 | 2188 ft | 1 kts | 143° |
| 2026-05-04 01:29 | 36.08274 | -115.13735 | 2191 ft | 2 kts | 143° |
| 2026-05-04 01:29 | 36.08293 | -115.13750 | 2191 ft | 4 kts | 157° |
| 2026-05-04 01:29 | 36.08319 | -115.13759 | 2189 ft | 4 kts | 175° |
| 2026-05-04 01:30 | 36.08342 | -115.13761 | 2189 ft | 2 kts | 178° |
| 2026-05-04 01:30 | 36.08355 | -115.13763 | 2189 ft | 3 kts | 143° |
| 2026-05-04 01:30 | 36.08378 | -115.13774 | 2189 ft | 4 kts | 162° |
| 2026-05-04 01:30 | 36.08391 | -115.13782 | 2191 ft | 1 kts | 143° |
| 2026-05-04 01:31 | 36.08393 | -115.13783 | 2191 ft | 0 kts | 143° |
| 2026-05-04 01:32 | 36.08392 | -115.13783 | 2191 ft | 0 kts | 140° |
| 2026-05-04 01:33 | 36.08394 | -115.13777 | 2190 ft | 1 kts | 94° |
| 2026-05-04 01:33 | 36.08403 | -115.13761 | 2188 ft | 5 kts | 57° |
| 2026-05-04 01:33 | 36.08417 | -115.13695 | 2189 ft | 11 kts | 84° |
| 2026-05-04 01:33 | 36.08417 | -115.13580 | 2189 ft | 16 kts | 91° |
| 2026-05-04 01:34 | 36.08383 | -115.13449 | 2188 ft | 12 kts | 133° |
| 2026-05-04 01:34 | 36.08349 | -115.13407 | 2189 ft | 2 kts | 136° |
| 2026-05-04 01:34 | 36.08347 | -115.13405 | 2189 ft | 0 kts | 136° |
| 2026-05-04 01:35 | 36.08317 | -115.13369 | 2190 ft | 10 kts | 134° |
| 2026-05-04 01:35 | 36.08252 | -115.13300 | 2192 ft | 13 kts | 154° |
| 2026-05-04 01:36 | 36.08158 | -115.13291 | 2191 ft | 14 kts | 180° |
| 2026-05-04 01:36 | 36.08056 | -115.13290 | 2189 ft | 15 kts | 180° |
| 2026-05-04 01:36 | 36.07967 | -115.13292 | 2189 ft | 10 kts | 180° |
| 2026-05-04 01:36 | 36.07894 | -115.13292 | 2189 ft | 11 kts | 180° |
| 2026-05-04 01:37 | 36.07811 | -115.13291 | 2189 ft | 12 kts | 179° |
| 2026-05-04 01:37 | 36.07759 | -115.13264 | 2189 ft | 13 kts | 126° |
| 2026-05-04 01:37 | 36.07755 | -115.13154 | 2189 ft | 12 kts | 89° |
| 2026-05-04 01:37 | 36.07756 | -115.13054 | 2189 ft | 11 kts | 90° |
| 2026-05-04 01:38 | 36.07756 | -115.12968 | 2189 ft | 9 kts | 90° |
| 2026-05-04 01:38 | 36.07756 | -115.12894 | 2188 ft | 8 kts | 90° |
| 2026-05-04 01:38 | 36.07755 | -115.12831 | 2190 ft | 7 kts | 90° |
| 2026-05-04 01:38 | 36.07755 | -115.12776 | 2188 ft | 6 kts | 90° |
| 2026-05-04 01:39 | 36.07755 | -115.12695 | 2188 ft | 10 kts | 90° |
| 2026-05-04 01:39 | 36.07755 | -115.12605 | 2188 ft | 13 kts | 90° |
| 2026-05-04 01:39 | 36.07755 | -115.12476 | 2188 ft | 17 kts | 90° |
| 2026-05-04 01:39 | 36.07756 | -115.12336 | 2188 ft | 13 kts | 90° |
| 2026-05-04 01:40 | 36.07754 | -115.12270 | 2188 ft | 0 kts | 102° |
| 2026-05-04 01:41 | 36.07753 | -115.12269 | 2188 ft | 1 kts | 102° |
| 2026-05-04 01:41 | 36.07731 | -115.12238 | 2190 ft | 10 kts | 152° |
| 2026-05-04 01:41 | 36.07649 | -115.12254 | 2190 ft | 13 kts | 233° |
| 2026-05-04 01:42 | 36.07642 | -115.12384 | 2188 ft | 19 kts | 269° |
| 2026-05-04 01:42 | 36.07638 | -115.12833 | 2192 ft | 96 kts | 270° |
| 2026-05-04 01:42 | 36.07638 | -115.13987 | 2191 ft | 169 kts | 274° |
| 2026-05-04 01:42 | 36.07673 | -115.15558 | 2751 ft | 191 kts | 265° |
| 2026-05-04 01:43 | 36.07675 | -115.17242 | 3696 ft | 200 kts | 264° |
| 2026-05-04 01:43 | 36.07695 | -115.18931 | 4575 ft | 190 kts | 264° |
| 2026-05-04 01:43 | 36.07736 | -115.20584 | 5107 ft | 196 kts | 264° |
| 2026-05-04 01:43 | 36.07582 | -115.22292 | 5473 ft | 206 kts | 252° |
| 2026-05-04 01:44 | 36.07171 | -115.24039 | 5823 ft | 217 kts | 241° |
| 2026-05-04 01:44 | 36.06266 | -115.25606 | 6161 ft | 233 kts | 221° |
| 2026-05-04 01:44 | 36.04883 | -115.26803 | 6608 ft | 252 kts | 205° |
| 2026-05-04 01:44 | 36.03211 | -115.27576 | 7332 ft | 258 kts | 200° |
| 2026-05-04 01:45 | 36.01496 | -115.28343 | 7854 ft | 264 kts | 200° |
| 2026-05-04 01:45 | 35.99761 | -115.29133 | 8521 ft | 266 kts | 199° |
| 2026-05-04 01:45 | 35.96106 | -115.30160 | 10250 ft | 276 kts | 192° |
| 2026-05-04 01:46 | 35.94299 | -115.30607 | 10606 ft | 295 kts | 192° |
| 2026-05-04 01:46 | 35.92265 | -115.31108 | 11306 ft | 301 kts | 192° |
| 2026-05-04 01:46 | 35.90191 | -115.31618 | 12072 ft | 306 kts | 192° |
| 2026-05-04 01:46 | 35.88083 | -115.32136 | 12895 ft | 309 kts | 192° |
| 2026-05-04 01:47 | 35.86195 | -115.32600 | 13565 ft | 313 kts | 192° |
| 2026-05-04 01:47 | 35.84045 | -115.33126 | 14284 ft | 316 kts | 192° |
| 2026-05-04 01:47 | 35.81880 | -115.33654 | 15012 ft | 318 kts | 192° |
| 2026-05-04 01:47 | 35.79694 | -115.34193 | 15683 ft | 323 kts | 193° |
| 2026-05-04 01:48 | 35.77483 | -115.34740 | 16390 ft | 325 kts | 193° |
| 2026-05-04 01:48 | 35.75249 | -115.35290 | 17041 ft | 330 kts | 193° |
| 2026-05-04 01:48 | 35.72987 | -115.35843 | 17739 ft | 333 kts | 193° |
| 2026-05-04 01:48 | 35.70733 | -115.36392 | 18334 ft | 337 kts | 193° |
| 2026-05-04 01:49 | 35.68421 | -115.36956 | 18927 ft | 339 kts | 194° |
| 2026-05-04 01:49 | 35.66101 | -115.37523 | 19559 ft | 341 kts | 195° |
| 2026-05-04 01:49 | 35.63770 | -115.38091 | 20199 ft | 342 kts | 196° |
| 2026-05-04 01:49 | 35.61421 | -115.38621 | 20843 ft | 346 kts | 193° |
| 2026-05-04 01:50 | 35.58989 | -115.38671 | 21477 ft | 355 kts | 185° |
| 2026-05-04 01:50 | 35.56507 | -115.38496 | 22101 ft | 357 kts | 185° |
| 2026-05-04 01:50 | 35.54019 | -115.38315 | 22714 ft | 359 kts | 186° |
| 2026-05-04 01:50 | 35.51523 | -115.38133 | 23316 ft | 361 kts | 187° |
| 2026-05-04 01:51 | 35.48996 | -115.37950 | 23817 ft | 364 kts | 187° |
| 2026-05-04 01:51 | 35.46461 | -115.37772 | 24291 ft | 366 kts | 187° |
| 2026-05-04 01:51 | 35.43905 | -115.37596 | 24678 ft | 370 kts | 187° |
| 2026-05-04 01:51 | 35.41328 | -115.37415 | 24782 ft | 369 kts | 187° |
| 2026-05-04 01:52 | 35.38815 | -115.37224 | 24803 ft | 360 kts | 187° |
| 2026-05-04 01:52 | 35.36248 | -115.37047 | 24816 ft | 378 kts | 187° |
| 2026-05-04 01:52 | 35.33597 | -115.36878 | 24816 ft | 394 kts | 187° |
| 2026-05-04 01:52 | 35.30773 | -115.36694 | 24814 ft | 408 kts | 186° |
| 2026-05-04 01:53 | 35.27933 | -115.36498 | 24810 ft | 421 kts | 186° |
| 2026-05-04 01:53 | 35.24976 | -115.36285 | 24802 ft | 431 kts | 186° |
| 2026-05-04 01:53 | 35.21946 | -115.36068 | 24806 ft | 440 kts | 185° |
| 2026-05-04 01:53 | 35.18862 | -115.35847 | 24809 ft | 448 kts | 185° |
| 2026-05-04 01:54 | 35.15729 | -115.35622 | 24795 ft | 454 kts | 185° |
| 2026-05-04 01:54 | 35.12558 | -115.35391 | 24799 ft | 456 kts | 185° |
| 2026-05-04 01:54 | 35.09393 | -115.35157 | 24796 ft | 456 kts | 185° |
| 2026-05-04 01:54 | 35.06221 | -115.34924 | 24801 ft | 457 kts | 185° |
| 2026-05-04 01:55 | 35.03042 | -115.34693 | 24789 ft | 457 kts | 185° |
| 2026-05-04 01:55 | 34.99860 | -115.34468 | 24792 ft | 457 kts | 185° |
| 2026-05-04 01:55 | 34.96686 | -115.34246 | 24793 ft | 457 kts | 185° |
| 2026-05-04 01:55 | 34.93509 | -115.34028 | 24757 ft | 457 kts | 185° |
| 2026-05-04 01:56 | 34.90333 | -115.33816 | 24758 ft | 457 kts | 185° |
| 2026-05-04 01:56 | 34.87154 | -115.33602 | 24758 ft | 458 kts | 185° |
| 2026-05-04 01:56 | 34.83975 | -115.33384 | 24748 ft | 458 kts | 185° |
| 2026-05-04 01:56 | 34.80793 | -115.33167 | 24747 ft | 457 kts | 185° |
| 2026-05-04 01:57 | 34.77672 | -115.33397 | 24741 ft | 441 kts | 200° |
| 2026-05-04 01:57 | 34.74778 | -115.34514 | 24736 ft | 434 kts | 206° |
| 2026-05-04 01:57 | 34.71969 | -115.35726 | 24740 ft | 434 kts | 207° |
| 2026-05-04 01:57 | 34.69128 | -115.36978 | 24727 ft | 434 kts | 206° |
| 2026-05-04 01:58 | 34.66294 | -115.38237 | 24736 ft | 434 kts | 207° |
| 2026-05-04 01:58 | 34.63455 | -115.39499 | 24730 ft | 434 kts | 207° |
| 2026-05-04 01:58 | 34.60615 | -115.40754 | 24732 ft | 434 kts | 206° |
| 2026-05-04 01:58 | 34.57773 | -115.42001 | 24733 ft | 434 kts | 206° |
| 2026-05-04 01:59 | 34.54932 | -115.43239 | 24725 ft | 434 kts | 206° |
| 2026-05-04 01:59 | 34.52089 | -115.44474 | 24725 ft | 434 kts | 206° |
| 2026-05-04 01:59 | 34.49251 | -115.45707 | 24726 ft | 434 kts | 206° |
| 2026-05-04 01:59 | 34.46412 | -115.46939 | 24728 ft | 434 kts | 206° |
| 2026-05-04 02:00 | 34.43572 | -115.48172 | 24712 ft | 434 kts | 206° |
| 2026-05-04 02:00 | 34.40729 | -115.49405 | 24714 ft | 434 kts | 206° |
| 2026-05-04 02:00 | 34.37887 | -115.50645 | 24718 ft | 434 kts | 206° |
| 2026-05-04 02:00 | 34.35052 | -115.51884 | 24732 ft | 433 kts | 206° |
| 2026-05-04 02:01 | 34.32269 | -115.53234 | 24731 ft | 427 kts | 213° |
| 2026-05-04 02:01 | 34.29699 | -115.55008 | 24735 ft | 425 kts | 216° |
| 2026-05-04 02:01 | 34.27162 | -115.56848 | 24736 ft | 424 kts | 217° |
| 2026-05-04 02:01 | 34.24648 | -115.58718 | 24736 ft | 424 kts | 217° |
| 2026-05-04 02:02 | 34.22143 | -115.60601 | 24746 ft | 424 kts | 217° |
| 2026-05-04 02:02 | 34.19502 | -115.62262 | 24746 ft | 429 kts | 211° |
| 2026-05-04 02:02 | 34.16789 | -115.63688 | 24734 ft | 433 kts | 208° |
| 2026-05-04 02:02 | 34.13981 | -115.65035 | 24746 ft | 436 kts | 207° |
| 2026-05-04 02:03 | 34.11135 | -115.66322 | 24756 ft | 437 kts | 207° |
| 2026-05-04 02:03 | 34.08278 | -115.67589 | 24761 ft | 437 kts | 207° |
| 2026-05-04 02:03 | 34.05426 | -115.68869 | 24761 ft | 437 kts | 207° |
| 2026-05-04 02:03 | 34.02584 | -115.70173 | 24752 ft | 437 kts | 208° |
| 2026-05-04 02:04 | 33.99751 | -115.71496 | 24753 ft | 437 kts | 208° |
| 2026-05-04 02:04 | 33.96918 | -115.72831 | 24753 ft | 437 kts | 208° |
| 2026-05-04 02:04 | 33.94089 | -115.74169 | 24757 ft | 437 kts | 208° |
| 2026-05-04 02:04 | 33.91259 | -115.75510 | 24735 ft | 437 kts | 208° |
| 2026-05-04 02:05 | 33.88434 | -115.76878 | 24759 ft | 438 kts | 209° |
| 2026-05-04 02:05 | 33.85612 | -115.78270 | 24762 ft | 438 kts | 209° |
| 2026-05-04 02:05 | 33.82795 | -115.79669 | 24763 ft | 438 kts | 209° |
| 2026-05-04 02:05 | 33.79973 | -115.81066 | 24757 ft | 438 kts | 209° |
| 2026-05-04 02:06 | 33.77147 | -115.82459 | 24758 ft | 438 kts | 209° |
| 2026-05-04 02:06 | 33.74318 | -115.83831 | 24751 ft | 439 kts | 208° |
| 2026-05-04 02:06 | 33.71468 | -115.85176 | 24508 ft | 441 kts | 208° |
| 2026-05-04 02:06 | 33.68610 | -115.86505 | 24251 ft | 441 kts | 208° |
| 2026-05-04 02:07 | 33.65736 | -115.87831 | 24026 ft | 443 kts | 207° |
| 2026-05-04 02:07 | 33.62857 | -115.89159 | 23793 ft | 443 kts | 208° |
| 2026-05-04 02:07 | 33.59990 | -115.90488 | 23743 ft | 442 kts | 208° |
| 2026-05-04 02:07 | 33.57119 | -115.91826 | 23764 ft | 443 kts | 208° |
| 2026-05-04 02:08 | 33.54254 | -115.93188 | 23759 ft | 441 kts | 210° |
| 2026-05-04 02:08 | 33.51676 | -115.95068 | 23770 ft | 429 kts | 224° |
| 2026-05-04 02:08 | 33.49671 | -115.97572 | 23597 ft | 404 kts | 237° |
| 2026-05-04 02:08 | 33.48108 | -116.00246 | 23371 ft | 377 kts | 238° |
| 2026-05-04 02:09 | 33.46690 | -116.02689 | 23127 ft | 348 kts | 238° |
| 2026-05-04 02:09 | 33.45354 | -116.04994 | 22864 ft | 332 kts | 238° |
| 2026-05-04 02:09 | 33.44031 | -116.07294 | 22604 ft | 336 kts | 238° |
| 2026-05-04 02:09 | 33.42698 | -116.09609 | 22341 ft | 338 kts | 238° |
| 2026-05-04 02:10 | 33.41361 | -116.11918 | 22088 ft | 336 kts | 238° |
| 2026-05-04 02:10 | 33.40029 | -116.14214 | 21845 ft | 335 kts | 238° |
| 2026-05-04 02:10 | 33.38701 | -116.16501 | 21593 ft | 334 kts | 237° |
| 2026-05-04 02:10 | 33.37375 | -116.18778 | 21333 ft | 332 kts | 237° |
| 2026-05-04 02:11 | 33.36050 | -116.21048 | 21097 ft | 332 kts | 237° |
| 2026-05-04 02:11 | 33.34721 | -116.23304 | 20857 ft | 332 kts | 235° |
| 2026-05-04 02:11 | 33.33072 | -116.25250 | 20626 ft | 337 kts | 220° |
| 2026-05-04 02:11 | 33.31009 | -116.26634 | 20365 ft | 343 kts | 212° |
| 2026-05-04 02:12 | 33.28857 | -116.27899 | 20123 ft | 345 kts | 211° |
| 2026-05-04 02:12 | 33.26698 | -116.29156 | 19816 ft | 345 kts | 211° |
| 2026-05-04 02:12 | 33.24549 | -116.30407 | 19332 ft | 343 kts | 211° |
| 2026-05-04 02:12 | 33.22410 | -116.31655 | 18827 ft | 341 kts | 211° |
| 2026-05-04 02:13 | 33.20279 | -116.32899 | 18330 ft | 340 kts | 211° |
| 2026-05-04 02:13 | 33.18163 | -116.34136 | 17908 ft | 336 kts | 211° |
| 2026-05-04 02:13 | 33.16063 | -116.35364 | 17574 ft | 333 kts | 211° |
| 2026-05-04 02:13 | 33.14018 | -116.36557 | 17369 ft | 322 kts | 211° |
| 2026-05-04 02:14 | 33.12025 | -116.37719 | 16935 ft | 317 kts | 211° |
| 2026-05-04 02:14 | 33.10077 | -116.38855 | 16543 ft | 314 kts | 210° |
| 2026-05-04 02:14 | 33.08117 | -116.39997 | 16095 ft | 313 kts | 210° |
| 2026-05-04 02:14 | 33.06139 | -116.41147 | 15690 ft | 311 kts | 210° |
| 2026-05-04 02:15 | 33.04193 | -116.42280 | 15241 ft | 311 kts | 210° |
| 2026-05-04 02:15 | 33.02254 | -116.43409 | 14846 ft | 309 kts | 210° |
| 2026-05-04 02:15 | 33.00401 | -116.44606 | 14440 ft | 305 kts | 217° |
| 2026-05-04 02:15 | 32.98771 | -116.46201 | 14054 ft | 302 kts | 223° |
| 2026-05-04 02:16 | 32.97185 | -116.47819 | 13643 ft | 300 kts | 223° |
| 2026-05-04 02:16 | 32.95600 | -116.49426 | 13136 ft | 298 kts | 223° |
| 2026-05-04 02:16 | 32.94025 | -116.51017 | 12744 ft | 296 kts | 222° |
| 2026-05-04 02:16 | 32.92431 | -116.52628 | 12048 ft | 304 kts | 222° |
| 2026-05-04 02:17 | 32.90824 | -116.54250 | 11609 ft | 301 kts | 223° |
| 2026-05-04 02:17 | 32.89238 | -116.55849 | 11233 ft | 297 kts | 223° |
| 2026-05-04 02:17 | 32.87668 | -116.57428 | 10866 ft | 293 kts | 221° |
| 2026-05-04 02:17 | 32.86119 | -116.58983 | 10524 ft | 290 kts | 221° |
| 2026-05-04 02:18 | 32.84586 | -116.60522 | 10158 ft | 286 kts | 221° |
| 2026-05-04 02:18 | 32.83076 | -116.62038 | 9798 ft | 283 kts | 221° |
| 2026-05-04 02:18 | 32.82084 | -116.63034 | 9557 ft | 279 kts | 221° |
| 2026-05-04 02:18 | 32.80644 | -116.64481 | 9212 ft | 263 kts | 221° |
| 2026-05-04 02:19 | 32.79289 | -116.65842 | 8896 ft | 247 kts | 221° |
| 2026-05-04 02:19 | 32.78019 | -116.67134 | 8587 ft | 233 kts | 225° |
| 2026-05-04 02:19 | 32.77023 | -116.68566 | 8315 ft | 219 kts | 238° |
| 2026-05-04 02:19 | 32.76296 | -116.70101 | 8045 ft | 207 kts | 240° |
| 2026-05-04 02:20 | 32.75615 | -116.71548 | 7792 ft | 195 kts | 239° |
| 2026-05-04 02:20 | 32.74974 | -116.72900 | 7588 ft | 182 kts | 239° |
| 2026-05-04 02:20 | 32.74358 | -116.74197 | 7343 ft | 179 kts | 239° |
| 2026-05-04 02:20 | 32.73749 | -116.75479 | 7112 ft | 178 kts | 240° |
| 2026-05-04 02:21 | 32.73137 | -116.76766 | 6898 ft | 179 kts | 240° |
| 2026-05-04 02:21 | 32.72530 | -116.78045 | 6677 ft | 177 kts | 240° |
| 2026-05-04 02:21 | 32.71922 | -116.79329 | 6458 ft | 179 kts | 240° |
| 2026-05-04 02:21 | 32.71311 | -116.80621 | 6212 ft | 179 kts | 240° |
| 2026-05-04 02:22 | 32.70719 | -116.81927 | 5977 ft | 179 kts | 246° |
| 2026-05-04 02:22 | 32.70285 | -116.83309 | 5766 ft | 179 kts | 249° |
| 2026-05-04 02:22 | 32.69856 | -116.84685 | 5562 ft | 178 kts | 249° |
| 2026-05-04 02:22 | 32.69422 | -116.86069 | 5348 ft | 179 kts | 249° |
| 2026-05-04 02:23 | 32.68997 | -116.87428 | 5141 ft | 178 kts | 250° |
| 2026-05-04 02:23 | 32.68566 | -116.88822 | 4939 ft | 181 kts | 251° |
| 2026-05-04 02:23 | 32.68149 | -116.90229 | 4725 ft | 181 kts | 252° |
| 2026-05-04 02:23 | 32.67735 | -116.91641 | 4509 ft | 181 kts | 252° |
| 2026-05-04 02:24 | 32.67389 | -116.93066 | 4292 ft | 179 kts | 262° |
| 2026-05-04 02:24 | 32.67417 | -116.94534 | 4084 ft | 179 kts | 281° |
| 2026-05-04 02:24 | 32.67751 | -116.95957 | 3875 ft | 178 kts | 286° |
| 2026-05-04 02:24 | 32.68096 | -116.97369 | 3666 ft | 178 kts | 285° |
| 2026-05-04 02:25 | 32.68436 | -116.98759 | 3466 ft | 172 kts | 286° |
| 2026-05-04 02:25 | 32.68764 | -117.00102 | 3256 ft | 166 kts | 285° |
| 2026-05-04 02:25 | 32.69078 | -117.01386 | 3077 ft | 158 kts | 284° |
| 2026-05-04 02:25 | 32.69376 | -117.02606 | 2914 ft | 152 kts | 285° |
| 2026-05-04 02:26 | 32.69665 | -117.03790 | 2731 ft | 148 kts | 285° |
| 2026-05-04 02:26 | 32.69951 | -117.04965 | 2541 ft | 147 kts | 285° |
| 2026-05-04 02:26 | 32.70235 | -117.06127 | 2352 ft | 146 kts | 285° |
| 2026-05-04 02:26 | 32.70513 | -117.07267 | 2162 ft | 140 kts | 285° |
| 2026-05-04 02:27 | 32.70780 | -117.08365 | 2037 ft | 137 kts | 285° |
| 2026-05-04 02:27 | 32.71038 | -117.09444 | 1812 ft | 135 kts | 284° |
| 2026-05-04 02:27 | 32.71302 | -117.10521 | 1591 ft | 136 kts | 285° |
| 2026-05-04 02:27 | 32.71582 | -117.11590 | 1407 ft | 135 kts | 286° |
| 2026-05-04 02:28 | 32.71848 | -117.12657 | 1199 ft | 133 kts | 284° |
| 2026-05-04 02:28 | 32.72092 | -117.13730 | 955 ft | 135 kts | 283° |
| 2026-05-04 02:28 | 32.72346 | -117.14821 | 734 ft | 138 kts | 283° |
| 2026-05-04 02:28 | 32.72610 | -117.15900 | 480 ft | 137 kts | 283° |
| 2026-05-04 02:29 | 32.72872 | -117.16976 | 292 ft | 136 kts | 282° |
| 2026-05-04 02:29 | 32.73131 | -117.18041 | 53 ft | 131 kts | 282° |
| 2026-05-04 02:29 | 32.73360 | -117.18978 | 22 ft | 95 kts | 287° |
| 2026-05-04 02:29 | 32.73494 | -117.19532 | 25 ft | 37 kts | 286° |
| 2026-05-04 02:30 | 32.73535 | -117.19754 | 27 ft | 24 kts | 260° |
| 2026-05-04 02:30 | 32.73482 | -117.19837 | 24 ft | 8 kts | 179° |
| 2026-05-04 02:30 | 32.73463 | -117.19818 | 25 ft | 0 kts | 121° |
| 2026-05-04 02:30 | 32.73461 | -117.19813 | 24 ft | 2 kts | 121° |
| 2026-05-04 02:31 | 32.73458 | -117.19803 | 24 ft | 1 kts | 110° |
| 2026-05-04 02:31 | 32.73457 | -117.19800 | 24 ft | 0 kts | 109° |
| 2026-05-04 02:31 | 32.73450 | -117.19778 | 24 ft | 7 kts | 109° |
| 2026-05-04 02:31 | 32.73424 | -117.19706 | 23 ft | 10 kts | 141° |
| 2026-05-04 02:32 | 32.73359 | -117.19705 | 21 ft | 0 kts | 184° |
| 2026-05-04 02:32 | 32.73351 | -117.19705 | 21 ft | 2 kts | 174° |
| 2026-05-04 02:32 | 32.73334 | -117.19697 | 20 ft | 3 kts | 154° |
| 2026-05-04 02:33 | 32.73318 | -117.19681 | 20 ft | 2 kts | 140° |
| 2026-05-04 02:33 | 32.73316 | -117.19680 | 20 ft | 0 kts | 140° |